Terminal Aerodrome Forecast
Issued by NWS Portland, OR

Home | Current Version | Previous Version | Text Only | Print | Product List | Glossary On
Versions: 1 2 3 4 5 6 7 8 9 10 11 12 13 14 15 16 17 18 19
000
FTUS46 KPQR 240522
TAFTTD
TAF
KTTD 240522Z 2406/2506 21008KT P6SM -SN BKN025 BKN035 OVC050
     FM241000 23008KT P6SM -RASN BKN025
     FM241300 23008KT P6SM -SHRA SCT015 BKN025 OVC040
     FM241800 23010KT P6SM BKN025
     FM242000 25008KT P6SM SCT025 BKN035 OVC045
     FM250000 25004KT P6SM OVC050=

USA.gov is the U.S. government's official web portal to all federal, state and local government web resources and services.